Data for 10/11/2014

Time Sea-Level Adjusted Pressure Absolute Pressure Temperature Relative Humidity Dew Point   
(mb) (inHg) (mb) (inHg) (C) (F) (%) (C) (F)
00:05 1018 30.06 847 25.01 9.2 48.5 67 3.5 38.2
00:10 1018 30.06 847 25.01 9.1 48.5 67 3.3 38
00:15 1018 30.06 847 25.01 9.3 48.8 66 3.4 38
00:20 1018 30.06 847 25.01 9.2 48.5 67 3.4 38.1
00:25 1018 30.06 847 25.01 9.2 48.6 67 3.4 38.2
00:30 1018 30.06 847 25.01 9 48.3 68 3.4 38.1
00:35 1018 30.06 847 25.01 9 48.3 67 3.3 37.9
00:40 1018 30.06 847 25.01 9 48.3 68 3.4 38.1
00:45 1018 30.06 847 25.01 9 48.2 68 3.4 38.1
00:50 1018 30.06 847 25.01 9.1 48.3 67 3.3 38
00:55 1018 30.06 847 25.01 9 48.3 68 3.4 38.2
01:00 1018 30.06 847 25.01 8.8 47.9 69 3.4 38.2
01:05 1018 30.06 847 25.01 8.7 47.7 69 3.4 38.1
01:10 1018 30.06 847 25.01 8.7 47.7 69 3.3 38
01:15 1018 30.06 847 25.01 8.7 47.7 68 3.3 37.9
01:20 1018 30.06 847 25.01 8.6 47.4 68 3 37.5
01:25 1018 30.06 847 25.01 8.4 47.2 69 3.1 37.5
01:30 1018 30.06 847 25.01 8 46.4 70 2.9 37.2
01:35 1018 30.06 847 25.01 7.9 46.2 69 2.7 36.8
01:40 1018 30.06 847 25.01 8 46.4 69 2.6 36.7
01:45 1018 30.06 847 25.01 7.9 46.2 70 2.7 36.8
01:50 1018 30.06 847 25.01 7.7 45.9 69 2.4 36.3
01:55 1018 30.06 847 25.01 7.7 45.9 68 2.2 36
02:00 1018 30.06 847 25.01 8.1 46.7 65 1.9 35.5
02:05 1018 30.06 847 25.01 8.2 46.8 65 2 35.6
02:10 1018 30.06 847 25.01 8.3 46.9 65 2 35.6
02:15 1018 30.06 847 25.01 8.2 46.8 66 2.3 36.2
02:20 1018 30.06 847 25.01 7.8 46.1 67 2.2 36
02:25 1018 30.06 847 25.01 7.7 45.9 67 2.1 35.8
02:30 1018 30.06 847 25.01 7.8 46.1 65 1.7 35.1
02:35 1018 30.06 847 25.01 8 46.3 62 1.1 34
02:40 1018 30.06 847 25.01 8.2 46.8 64 1.8 35.2
02:45 1018 30.06 847 25.01 8.1 46.5 60 0.8 33.5
02:50 1018 30.06 847 25.01 8.3 46.9 58 0.5 32.9
02:55 1018 30.06 847 25.01 8.7 47.7 55 0.3 32.5
03:00 1018 30.06 847 25.01 9.1 48.4 57 1 33.8
03:05 1018 30.06 847 25.01 8.6 47.5 61 1.5 34.8
03:10 1018 30.06 847 25.01 7.8 46.1 62 0.9 33.6
03:15 1018 30.06 847 25.01 7.2 45 65 1.2 34.1
03:20 1018 30.06 847 25.01 7.1 44.8 65 0.9 33.7
03:25 1018 30.06 847 25.01 7.1 44.8 66 1.3 34.4
03:30 1018 30.06 847 25.01 6.7 44.1 69 1.4 34.5
03:35 1018 30.06 847 25.01 6.3 43.4 70 1.3 34.3
03:40 1018 30.06 847 25.01 6.3 43.3 70 1.3 34.3
03:45 1018 30.06 847 25.01 6.6 43.9 68 1.2 34.2
03:50 1018 30.06 847 25.01 7.1 44.8 66 1.2 34.2
03:55 1018 30.06 847 25.01 7 44.5 68 1.6 34.8
04:00 1018 30.06 847 25.01 6.7 44.1 69 1.4 34.5
04:05 1018 30.06 847 25.01 6.9 44.4 67 1.3 34.3
04:10 1018 30.06 847 25.01 7.2 44.9 67 1.5 34.6
04:15 1018 30.06 847 25.01 7.3 45.2 66 1.4 34.5
04:20 1018 30.06 847 25.01 7.6 45.7 65 1.4 34.6
04:25 1018 30.06 847 25.01 7.8 46 64 1.4 34.5
04:30 1018 30.06 847 25.01 7.9 46.1 63 1.3 34.4
04:35 1018 30.06 847 25.01 8.1 46.5 63 1.5 34.7
04:40 1018 30.06 847 25.01 8.3 46.9 63 1.7 35
04:45 1018 30.06 847 25.01 8.2 46.7 62 1.5 34.6
04:50 1018 30.06 847 25.01 8.1 46.6 63 1.5 34.6
04:55 1017 30.03 847 25.01 8.1 46.6 62 1.3 34.3
05:00 1017 30.03 847 25.01 8.3 47 57 0.3 32.5
05:05 1017 30.03 847 25.01 8.9 48.1 57 0.8 33.5
05:10 1017 30.03 847 25.01 8.8 47.9 57 0.9 33.6
05:15 1017 30.03 847 25.01 8.9 48 59 1.4 34.5
05:20 1017 30.03 847 25.01 8.8 47.9 59 1.2 34.1
05:25 1017 30.03 847 25.01 8.8 47.8 57 0.8 33.4
05:30 1017 30.03 847 25.01 8.8 47.9 56 0.6 33.1
05:35 1018 30.06 847 25.01 8.8 47.8 59 1.3 34.3
05:40 1018 30.06 847 25.01 8.6 47.5 55 0 32.1
05:45 1018 30.06 847 25.01 9.5 49.2 52 0.2 32.4
05:50 1018 30.06 847 25.01 9.7 49.4 53 0.6 33
05:55 1018 30.06 847 25.01 9.6 49.3 54 0.7 33.2
06:00 1018 30.06 847 25.01 9.3 48.7 58 1.4 34.4
06:05 1018 30.06 847 25.01 8.5 47.2 57 0.5 32.9
06:10 1018 30.06 847 25.01 8.5 47.2 56 0.2 32.4
06:15 1018 30.06 847 25.01 8.6 47.5 57 0.5 32.9
06:20 1018 30.06 847 25.01 8.1 46.6 59 0.7 33.3
06:25 1018 30.06 847 25.01 7.5 45.6 62 0.7 33.3
06:30 1018 30.06 847 25.01 7.4 45.2 60 0 32
06:35 1018 30.06 847 25.01 7.6 45.6 60 0.4 32.7
06:40 1018 30.06 847 25.01 7.5 45.6 60 0.3 32.5
06:45 1018 30.06 847 25.01 7.7 45.9 60 0.4 32.7
06:50 1018 30.06 847 25.01 7.8 46.1 61 0.7 33.3
06:55 1018 30.06 847 25.01 7.6 45.7 62 0.8 33.4
07:00 1018 30.06 847 25.01 7.6 45.7 60 0.3 32.5
07:05 1018 30.06 847 25.01 7.9 46.3 59 0.4 32.8
07:10 1018 30.06 847 25.01 8 46.3 59 0.4 32.6
07:15 1018 30.06 847 25.01 8 46.4 59 0.4 32.8
07:20 1018 30.06 847 25.01 8.1 46.6 57 0.2 32.4
07:25 1018 30.06 847 25.01 8.5 47.2 57 0.4 32.7
07:30 1018 30.06 847 25.01 8.5 47.2 57 0.5 32.9
07:35 1018 30.06 847 25.01 8.4 47.1 58 0.5 32.9
07:40 1018 30.06 847 25.01 8.6 47.4 56 0.4 32.7
07:45 1018 30.06 847 25.01 8.7 47.6 56 0.5 32.8
07:50 1018 30.06 847 25.01 8.8 47.9 56 0.5 32.9
07:55 1018 30.06 847 25.01 9 48.1 55 0.6 33
08:00 1018 30.06 847 25.01 9 48.3 60 1.6 34.9
08:05 1018 30.06 847 25.01 8.6 47.4 60 1.3 34.4
08:10 1018 30.06 847 25.01 8.7 47.6 59 1.3 34.3
08:15 1018 30.06 847 25.01 9.1 48.3 55 0.6 33.1
08:20 1018 30.06 847 25.01 9.6 49.2 50 -0.2 31.7
08:25 1018 30.06 847 25.01 10.1 50.1 50 0.3 32.5
08:30 1018 30.06 847 25.01 10.3 50.6 53 1.1 34
08:35 1018 30.06 847 25.01 10.3 50.6 53 1.1 34
08:40 1018 30.06 847 25.01 10.5 50.9 53 1.2 34.2
08:45 1018 30.06 847 25.01 10.7 51.2 58 2.7 36.9
08:50 1018 30.06 847 25.01 10.5 50.9 59 3 37.3
08:55 1018 30.06 847 25.01 10.3 50.5 60 2.8 37.1
09:00 1018 30.06 847 25.01 10.3 50.5 61 3.1 37.7
09:05 1018 30.06 847 25.01 10.5 50.8 61 3.2 37.8
09:10 1018 30.06 847 25.01 10.8 51.4 59 3.2 37.7
09:15 1017 30.03 847 25.01 11.1 52 59 3.4 38.2
09:20 1018 30.06 847 25.01 11.3 52.3 57 3.2 37.8
09:25 1017 30.03 847 25.01 11.6 52.9 53 2.5 36.5
09:30 1017 30.03 847 25.01 12.1 53.7 53 2.7 36.9
09:35 1017 30.03 847 25.01 12.4 54.4 50 2.5 36.5
09:40 1017 30.03 847 25.01 12.8 55 50 2.7 36.8
09:45 1017 30.03 846 24.98 13.2 55.7 45 1.7 35.1
09:50 1017 30.03 846 24.98 13.4 56.2 45 1.9 35.3
09:55 1017 30.03 846 24.98 13.5 56.3 46 2.2 36
10:00 1017 30.03 846 24.98 13.3 55.9 46 2 35.7
10:05 1017 30.03 846 24.98 13.5 56.2 44 1.6 34.9
10:10 1017 30.03 846 24.98 14.1 57.4 42 1.5 34.6
10:15 1017 30.03 846 24.98 14.6 58.3 39 1 33.9
10:20 1017 30.03 846 24.98 14.8 58.6 39 1 33.9
10:25 1017 30.03 846 24.98 14.9 58.8 39 1 33.8
10:30 1017 30.03 846 24.98 15 58.9 38 0.9 33.6
10:35 1017 30.03 846 24.98 14.7 58.4 39 1.1 34
10:40 1017 30.03 846 24.98 14.8 58.6 38 0.6 33.1
10:45 1017 30.03 846 24.98 14.7 58.5 39 1 33.8
10:50 1017 30.03 846 24.98 14.9 58.8 39 1.3 34.4
10:55 1017 30.03 846 24.98 15 58.9 41 1.8 35.2
11:00 1017 30.03 846 24.98 14.6 58.2 42 1.9 35.4
11:05 1017 30.03 846 24.98 14.5 58.1 42 1.7 35
11:10 1017 30.03 846 24.98 14.9 58.8 40 1.5 34.6
11:15 1017 30.03 846 24.98 14.8 58.6 38 0.8 33.4
11:20 1016 30 845 24.95 15 59 37 0.6 33
11:25 1016 30 845 24.95 15.2 59.4 36 0.3 32.6
11:30 1016 30 845 24.95 15.2 59.4 37 0.6 33
11:35 1016 30 845 24.95 15.3 59.5 34 -0.4 31.2
11:40 1016 30 845 24.95 15.9 60.5 32 -0.7 30.7
11:45 1016 30 845 24.95 16.4 61.5 33 0.2 32.4
11:50 1016 30 845 24.95 16.5 61.6 32 -0.1 31.8
11:55 1016 30 845 24.95 16.6 61.8 32 -0.3 31.5
12:00 1016 30 845 24.95 17.6 63.6 28 -0.8 30.6
12:05 1015 29.97 845 24.95 17.3 63.1 30 -0.2 31.7
12:10 1015 29.97 845 24.95 17.8 64 30 -0.1 31.8
12:15 1015 29.97 844 24.92 17.5 63.5 29 -0.4 31.2
12:20 1015 29.97 844 24.92 18 64.4 28 -0.9 30.4
12:25 1015 29.97 844 24.92 19.2 66.5 27 -0.3 31.4
12:30 1015 29.97 844 24.92 19.3 66.7 26 -0.6 31
12:35 1015 29.97 844 24.92 19.3 66.7 26 -0.5 31.2
12:40 1015 29.97 844 24.92 19.1 66.4 26 -0.6 31
12:45 1015 29.97 844 24.92 18.9 66 26 -0.7 30.7
12:50 1015 29.97 844 24.92 18.9 66 26 -1 30.3
12:55 1015 29.97 844 24.92 18.4 65.1 28 -0.3 31.5
13:00 1015 29.97 844 24.92 18.2 64.7 28 -0.3 31.5
13:05 1015 29.97 844 24.92 17.8 64 29 -0.4 31.3
13:10 1014 29.94 844 24.92 17.7 63.9 30 -0.1 31.9
13:15 1014 29.94 843 24.89 17.7 63.9 29 -0.4 31.4
13:20 1014 29.94 843 24.89 17.8 64 28 -1 30.3
13:25 1014 29.94 843 24.89 17.9 64.2 27 -1.1 30
13:30 1014 29.94 843 24.89 17.7 63.9 28 -1.1 30
13:35 1014 29.94 843 24.89 17.7 63.8 27 -1.3 29.7
13:40 1014 29.94 843 24.89 17.4 63.3 27 -1.7 28.9
13:45 1014 29.94 843 24.89 17.4 63.3 27 -1.5 29.3
13:50 1013 29.91 843 24.89 17.3 63.2 26 -2.3 27.9
13:55 1013 29.91 842 24.86 17.5 63.5 26 -2.3 27.8
14:00 1013 29.91 842 24.86 17.8 64 25 -2.3 27.8
14:05 1013 29.91 842 24.86 17.9 64.1 26 -2 28.5
14:10 1013 29.91 842 24.86 17.8 64.1 26 -1.8 28.8
14:15 1013 29.91 842 24.86 17.8 64.1 26 -1.6 29.2
14:20 1013 29.91 842 24.86 17.7 63.9 26 -1.7 29
14:25 1013 29.91 842 24.86 17.8 64 26 -2 28.5
14:30 1013 29.91 842 24.86 17.7 63.9 26 -2 28.5
14:35 1013 29.91 842 24.86 17.7 63.8 27 -1.4 29.5
14:40 1013 29.91 842 24.86 17.7 63.9 27 -1.6 29.2
14:45 1013 29.91 842 24.86 17.8 64 25 -2.2 28
14:50 1013 29.91 842 24.86 17.8 64 27 -1.4 29.4
14:55 1013 29.91 842 24.86 17.8 64 26 -1.7 29
15:00 1013 29.91 842 24.86 17.6 63.7 27 -1.2 29.8
15:05 1013 29.91 842 24.86 17.5 63.5 27 -1.8 28.8
15:10 1013 29.91 842 24.86 17.3 63.2 26 -2 28.4
15:15 1013 29.91 842 24.86 17.3 63.1 27 -1.8 28.7
15:20 1013 29.91 842 24.86 17.1 62.9 27 -1.8 28.8
15:25 1012 29.88 842 24.86 17 62.7 27 -1.8 28.8
15:30 1012 29.88 841 24.83 17 62.5 28 -1.5 29.2
15:35 1012 29.88 841 24.83 16.8 62.3 29 -1.3 29.6
15:40 1012 29.88 841 24.83 16.7 62 29 -1.3 29.6
15:45 1012 29.88 841 24.83 16.6 61.8 29 -1.6 29.1
15:50 1012 29.88 841 24.83 16.5 61.7 29 -1.4 29.5
15:55 1012 29.88 841 24.83 16.5 61.6 30 -1.2 29.8
16:00 1012 29.88 841 24.83 16.4 61.5 28 -1.8 28.7
16:05 1012 29.88 841 24.83 16.5 61.6 29 -1.6 29.2
16:10 1012 29.88 841 24.83 16.5 61.6 29 -1.6 29.2
16:15 1012 29.88 841 24.83 16.5 61.6 29 -1.7 29
16:20 1012 29.88 841 24.83 16.5 61.6 29 -1.6 29.1
16:25 1011 29.85 841 24.83 16.5 61.6 29 -1.4 29.5
16:30 1011 29.85 841 24.83 16.5 61.6 30 -1.2 29.8
16:35 1011 29.85 841 24.83 16.5 61.7 29 -1.5 29.2
16:40 1011 29.85 841 24.83 16.7 62 29 -1.1 30
16:45 1011 29.85 840 24.81 16.7 62 30 -1 30.1
16:50 1011 29.85 840 24.81 16.6 62 30 -0.7 30.7
16:55 1011 29.85 840 24.81 16.4 61.6 31 -0.6 31
17:00 1011 29.85 840 24.81 16.3 61.3 32 -0.4 31.4
17:05 1011 29.85 840 24.81 16.1 61 31 -0.7 30.7
17:10 1011 29.85 840 24.81 16 60.8 31 -0.9 30.4
17:15 1011 29.85 840 24.81 16 60.8 31 -0.8 30.5
17:20 1011 29.85 840 24.81 15.9 60.7 30 -1.5 29.3
17:25 1010 29.83 840 24.81 16.1 61 30 -1.2 29.8
17:30 1010 29.83 840 24.81 15.9 60.7 31 -1 30.2
17:35 1010 29.83 840 24.81 15.7 60.2 32 -0.7 30.7
17:40 1010 29.83 839 24.78 15.6 60 32 -1 30.2
17:45 1010 29.83 839 24.78 15.5 59.9 32 -1 30.3
17:50 1010 29.83 839 24.78 15.2 59.3 32 -1.4 29.5
17:55 1010 29.83 839 24.78 15.3 59.5 31 -1.5 29.3
18:00 1010 29.83 839 24.78 15.3 59.6 32 -1.1 30.1
18:05 1010 29.83 839 24.78 15.1 59.2 32 -1.3 29.7
18:10 1010 29.83 839 24.78 14.9 58.9 34 -0.9 30.4
18:15 1010 29.83 839 24.78 14.7 58.5 33 -1.4 29.5
18:20 1010 29.83 839 24.78 14.7 58.5 33 -1.4 29.5
18:25 1010 29.83 839 24.78 14.7 58.5 33 -1.4 29.6
18:30 1010 29.83 839 24.78 14.7 58.4 34 -1.1 30
18:35 1011 29.85 840 24.81 14.6 58.2 38 0.6 33.1
18:40 1011 29.85 841 24.83 13.6 56.4 54 4.4 40
18:45 1012 29.88 841 24.83 12 53.6 66 5.8 42.4
18:50 1012 29.88 841 24.83 10.8 51.5 77 6.9 44.5
18:55 1012 29.88 841 24.83 9.8 49.6 81 6.7 44.1
19:00 1013 29.91 842 24.86 9.3 48.7 83 6.5 43.7
19:05 1013 29.91 842 24.86 9.2 48.5 83 6.3 43.4
19:10 1013 29.91 842 24.86 9 48.2 84 6.4 43.6
19:15 1013 29.91 842 24.86 8.7 47.6 87 6.6 43.9
19:20 1013 29.91 843 24.89 8.5 47.2 88 6.6 43.9
19:25 1013 29.91 843 24.89 8.4 47 90 6.8 44.2
19:30 1013 29.91 843 24.89 8.3 46.9 90 6.8 44.2
19:35 1014 29.94 843 24.89 8.1 46.6 91 6.8 44.2
19:40 1013 29.91 843 24.89 8 46.4 92 6.7 44.1
19:45 1013 29.91 842 24.86 8 46.3 86 5.8 42.4
19:50 1013 29.91 842 24.86 8.3 46.9 78 4.7 40.5
19:55 1013 29.91 842 24.86 8.4 47.2 85 6.1 43
20:00 1013 29.91 842 24.86 7.8 46 89 6 42.9
20:05 1013 29.91 842 24.86 7.5 45.5 90 6.1 42.9
20:10 1013 29.91 843 24.89 7.7 45.9 91 6.3 43.3
20:15 1014 29.94 843 24.89 7.8 46.1 89 6.1 43
20:20 1014 29.94 843 24.89 7.8 46 88 6 42.7
20:25 1014 29.94 843 24.89 7.8 46 88 5.9 42.6
20:30 1013 29.91 843 24.89 7.8 46 87 5.8 42.5
20:35 1013 29.91 843 24.89 7.7 45.8 87 5.7 42.3
20:40 1013 29.91 843 24.89 7.7 45.8 88 5.8 42.5
20:45 1013 29.91 843 24.89 7.7 45.8 89 5.9 42.6
20:50 1013 29.91 843 24.89 7.8 46 88 6 42.7
20:55 1013 29.91 843 24.89 7.8 46 88 5.8 42.5
21:00 1013 29.91 843 24.89 7.8 46 87 5.8 42.5
21:05 1013 29.91 843 24.89 7.8 46.1 87 5.8 42.4
21:10 1013 29.91 843 24.89 7.7 45.8 87 5.7 42.3
21:15 1014 29.94 843 24.89 7.5 45.6 88 5.8 42.4
21:20 1014 29.94 843 24.89 7.5 45.5 89 5.8 42.5
21:25 1014 29.94 843 24.89 7.5 45.6 90 6 42.8
21:30 1014 29.94 843 24.89 7.5 45.5 90 5.9 42.7
21:35 1014 29.94 843 24.89 7.4 45.4 89 5.7 42.3
21:40 1014 29.94 843 24.89 7.4 45.4 89 5.7 42.2
21:45 1014 29.94 843 24.89 7.5 45.4 88 5.5 42
21:50 1014 29.94 843 24.89 7.4 45.4 86 5.3 41.5
21:55 1014 29.94 843 24.89 7.3 45.2 87 5.2 41.4
22:00 1014 29.94 843 24.89 7.2 44.9 87 5.1 41.2
22:05 1014 29.94 843 24.89 7.2 44.9 86 5 41
22:10 1013 29.91 843 24.89 7.1 44.7 87 5 40.9
22:15 1013 29.91 843 24.89 7 44.5 87 5 41
22:20 1013 29.91 843 24.89 6.9 44.4 87 4.9 40.9
22:25 1013 29.91 843 24.89 6.8 44.3 87 4.7 40.5
22:30 1013 29.91 842 24.86 6.8 44.3 86 4.6 40.3
22:35 1013 29.91 843 24.89 6.9 44.5 86 4.7 40.5
22:40 1013 29.91 843 24.89 7.1 44.7 85 4.7 40.5
22:45 1013 29.91 843 24.89 7.1 44.8 84 4.6 40.3
22:50 1013 29.91 842 24.86 7 44.6 85 4.6 40.3
22:55 1013 29.91 843 24.89 7 44.6 85 4.6 40.4
23:00 1014 29.94 843 24.89 7 44.6 85 4.6 40.3
23:05 1014 29.94 843 24.89 7 44.5 84 4.5 40.1
23:10 1013 29.91 843 24.89 6.9 44.5 85 4.6 40.3
23:15 1013 29.91 843 24.89 6.9 44.4 85 4.5 40.2
23:20 1013 29.91 843 24.89 6.9 44.5 84 4.5 40.1
23:25 1013 29.91 843 24.89 7 44.6 85 4.7 40.4
23:30 1013 29.91 843 24.89 6.9 44.5 85 4.6 40.2
23:35 1013 29.91 843 24.89 6.9 44.5 86 4.7 40.5
23:40 1013 29.91 843 24.89 6.9 44.4 86 4.7 40.5
23:45 1014 29.94 843 24.89 6.8 44.3 86 4.7 40.4
23:50 1014 29.94 843 24.89 6.8 44.2 86 4.5 40.1
23:55 1014 29.94 843 24.89 6.8 44.2 84 4.3 39.8
24:00 1014 29.94 843 24.89 6.8 44.3 83 4.1 39.4